Terminal Aerodrome Forecast
Issued by NWS

Home | Current Version | Previous Version | Text Only | Print | Product List | Glossary On
Versions: 1 2 3 4 5 6 7 8 9 10 11 12 13 14 15 16 17 18 19 20 21 22 23 24 25 26 27 28 29 30 31 32 33 34 35 36
000
FTAK31 PANC 301744
TAFACD
TAF
PACD 301744Z 3018/3118 18012KT P6SM SCT020 BKN080
     FM310000 20017G25KT P6SM -RA BKN025 OVC060
     FM310700 21017G25KT 4SM -RA BR BKN007 OVC015=

USA.gov is the U.S. government's official web portal to all federal, state and local government web resources and services.